PAMD METAR and TAF weather

Enter ICAO airport designator
Station Type Date Time Source
PAMD METAR 2019/06/16 12:51 UTC NOAA

PAMD 161251Z AUTO 10005KT 5SM BR SCT004 OVC022 09/09 A2982 RMK AO2 SLP088 T00940094


Station Type Date Time Source
PAMD Decoded METAR 2019/06/16 12:51 UTC NOAA

Middleton Island, Middleton Island Airport, AK, United States (PAMD) 59-26N 146-18W 14M
Jun 16, 2019 - 08:51 AM EDT / 2019.06.16 1251 UTC
Wind: from the E (100 degrees) at 6 MPH (5 KT):0
Visibility: 5 mile(s):0
Sky conditions: overcast
Weather: mist
Temperature: 48.9 F (9.4 C)
Dew Point: 48.9 F (9.4 C)
Relative Humidity: 100%
Pressure (altimeter): 29.82 in. Hg (1009 hPa)
ob: PAMD 161251Z AUTO 10005KT 5SM BR SCT004 OVC022 09/09 A2982 RMK AO2 SLP088 T00940094
cycle: 13

Station Type Date Time Source
PAMD TAF UTC NOAA

Error!

Example: see airport list